sensor_id;sensor_type;location;lat;lon;timestamp;P1;durP1;ratioP1;P2;durP2;ratioP2
35326;SDS011;21436;52.348;20.928;2024-02-26T00:02:17;41.20;;;19.38;;
35326;SDS011;21436;52.348;20.928;2024-02-26T00:04:45;39.60;;;19.27;;
35326;SDS011;21436;52.348;20.928;2024-02-26T00:07:13;38.70;;;19.58;;
35326;SDS011;21436;52.348;20.928;2024-02-26T00:09:43;40.70;;;19.73;;
35326;SDS011;21436;52.348;20.928;2024-02-26T00:12:10;39.53;;;20.23;;
35326;SDS011;21436;52.348;20.928;2024-02-26T00:14:38;43.88;;;19.85;;
35326;SDS011;21436;52.348;20.928;2024-02-26T00:17:06;43.95;;;20.40;;
35326;SDS011;21436;52.348;20.928;2024-02-26T00:19:35;41.42;;;19.15;;
35326;SDS011;21436;52.348;20.928;2024-02-26T00:22:02;35.42;;;18.00;;
35326;SDS011;21436;52.348;20.928;2024-02-26T00:24:30;39.55;;;19.08;;
35326;SDS011;21436;52.348;20.928;2024-02-26T00:26:58;45.78;;;18.77;;
35326;SDS011;21436;52.348;20.928;2024-02-26T00:29:27;39.05;;;19.45;;
35326;SDS011;21436;52.348;20.928;2024-02-26T00:31:54;39.72;;;18.60;;
35326;SDS011;21436;52.348;20.928;2024-02-26T00:34:23;49.65;;;18.02;;
35326;SDS011;21436;52.348;20.928;2024-02-26T00:36:51;38.20;;;17.33;;
35326;SDS011;21436;52.348;20.928;2024-02-26T00:39:19;40.42;;;18.50;;
35326;SDS011;21436;52.348;20.928;2024-02-26T00:41:47;62.25;;;24.88;;
35326;SDS011;21436;52.348;20.928;2024-02-26T00:44:15;49.85;;;20.52;;
35326;SDS011;21436;52.348;20.928;2024-02-26T00:46:43;62.67;;;23.75;;
35326;SDS011;21436;52.348;20.928;2024-02-26T00:49:11;58.75;;;21.98;;
35326;SDS011;21436;52.348;20.928;2024-02-26T00:51:38;50.58;;;19.25;;
35326;SDS011;21436;52.348;20.928;2024-02-26T00:54:06;43.97;;;19.42;;
35326;SDS011;21436;52.348;20.928;2024-02-26T00:56:34;46.10;;;20.55;;
35326;SDS011;21436;52.348;20.928;2024-02-26T00:59:02;49.05;;;22.08;;
35326;SDS011;21436;52.348;20.928;2024-02-26T01:01:29;51.95;;;21.77;;
35326;SDS011;21436;52.348;20.928;2024-02-26T01:03:57;44.08;;;21.73;;
35326;SDS011;21436;52.348;20.928;2024-02-26T01:06:25;54.17;;;23.08;;
35326;SDS011;21436;52.348;20.928;2024-02-26T01:08:53;53.17;;;24.60;;
35326;SDS011;21436;52.348;20.928;2024-02-26T01:11:21;50.83;;;22.38;;
35326;SDS011;21436;52.348;20.928;2024-02-26T01:13:49;49.47;;;20.98;;
35326;SDS011;21436;52.348;20.928;2024-02-26T01:16:20;47.35;;;23.83;;
35326;SDS011;21436;52.348;20.928;2024-02-26T01:18:48;48.97;;;20.23;;
35326;SDS011;21436;52.348;20.928;2024-02-26T01:21:16;42.30;;;20.45;;
35326;SDS011;21436;52.348;20.928;2024-02-26T01:23:44;45.35;;;18.90;;
35326;SDS011;21436;52.348;20.928;2024-02-26T01:26:11;41.25;;;18.95;;
35326;SDS011;21436;52.348;20.928;2024-02-26T01:28:40;49.88;;;21.98;;
35326;SDS011;21436;52.348;20.928;2024-02-26T01:31:09;42.35;;;18.55;;
35326;SDS011;21436;52.348;20.928;2024-02-26T01:33:37;41.70;;;18.30;;
35326;SDS011;21436;52.348;20.928;2024-02-26T01:36:05;46.45;;;19.42;;
35326;SDS011;21436;52.348;20.928;2024-02-26T01:38:33;42.47;;;19.85;;
35326;SDS011;21436;52.348;20.928;2024-02-26T01:41:01;50.20;;;21.60;;
35326;SDS011;21436;52.348;20.928;2024-02-26T01:43:29;46.97;;;20.52;;
35326;SDS011;21436;52.348;20.928;2024-02-26T01:45:56;44.72;;;20.15;;
35326;SDS011;21436;52.348;20.928;2024-02-26T01:48:25;41.47;;;19.67;;
35326;SDS011;21436;52.348;20.928;2024-02-26T01:50:53;45.22;;;20.00;;
35326;SDS011;21436;52.348;20.928;2024-02-26T01:53:21;42.38;;;19.13;;
35326;SDS011;21436;52.348;20.928;2024-02-26T01:55:49;51.28;;;19.25;;
35326;SDS011;21436;52.348;20.928;2024-02-26T01:58:17;45.88;;;21.35;;
35326;SDS011;21436;52.348;20.928;2024-02-26T02:00:45;43.10;;;19.95;;
35326;SDS011;21436;52.348;20.928;2024-02-26T02:03:13;49.47;;;20.20;;
35326;SDS011;21436;52.348;20.928;2024-02-26T02:05:40;39.95;;;18.55;;
35326;SDS011;21436;52.348;20.928;2024-02-26T02:08:10;42.08;;;19.70;;
35326;SDS011;21436;52.348;20.928;2024-02-26T02:10:40;43.95;;;19.35;;
35326;SDS011;21436;52.348;20.928;2024-02-26T02:13:09;49.47;;;21.00;;
35326;SDS011;21436;52.348;20.928;2024-02-26T02:15:37;40.75;;;19.58;;
35326;SDS011;21436;52.348;20.928;2024-02-26T02:18:05;39.83;;;19.25;;
35326;SDS011;21436;52.348;20.928;2024-02-26T02:20:33;47.13;;;19.05;;
35326;SDS011;21436;52.348;20.928;2024-02-26T02:23:02;39.53;;;18.73;;
35326;SDS011;21436;52.348;20.928;2024-02-26T02:25:30;41.00;;;19.52;;
35326;SDS011;21436;52.348;20.928;2024-02-26T02:27:58;47.92;;;21.05;;
35326;SDS011;21436;52.348;20.928;2024-02-26T02:30:27;48.35;;;21.90;;
35326;SDS011;21436;52.348;20.928;2024-02-26T02:32:56;47.75;;;21.88;;
35326;SDS011;21436;52.348;20.928;2024-02-26T02:35:26;48.58;;;21.77;;
35326;SDS011;21436;52.348;20.928;2024-02-26T02:37:54;56.70;;;23.38;;
35326;SDS011;21436;52.348;20.928;2024-02-26T02:40:23;49.72;;;19.98;;
35326;SDS011;21436;52.348;20.928;2024-02-26T02:42:50;48.60;;;21.20;;
35326;SDS011;21436;52.348;20.928;2024-02-26T02:45:18;49.97;;;21.75;;
35326;SDS011;21436;52.348;20.928;2024-02-26T02:47:46;49.55;;;20.70;;
35326;SDS011;21436;52.348;20.928;2024-02-26T02:50:14;52.63;;;21.05;;
35326;SDS011;21436;52.348;20.928;2024-02-26T02:52:42;57.20;;;23.38;;
35326;SDS011;21436;52.348;20.928;2024-02-26T02:55:09;50.13;;;22.83;;
35326;SDS011;21436;52.348;20.928;2024-02-26T02:57:38;55.95;;;24.77;;
35326;SDS011;21436;52.348;20.928;2024-02-26T03:00:09;55.13;;;23.40;;
35326;SDS011;21436;52.348;20.928;2024-02-26T03:02:38;55.53;;;22.52;;
35326;SDS011;21436;52.348;20.928;2024-02-26T03:05:07;52.63;;;22.77;;
35326;SDS011;21436;52.348;20.928;2024-02-26T03:07:37;51.75;;;21.60;;
35326;SDS011;21436;52.348;20.928;2024-02-26T03:10:06;47.97;;;21.25;;
35326;SDS011;21436;52.348;20.928;2024-02-26T03:12:35;55.05;;;24.13;;
35326;SDS011;21436;52.348;20.928;2024-02-26T03:15:03;53.67;;;22.48;;
35326;SDS011;21436;52.348;20.928;2024-02-26T03:17:32;47.75;;;22.63;;
35326;SDS011;21436;52.348;20.928;2024-02-26T03:19:59;56.78;;;23.08;;
35326;SDS011;21436;52.348;20.928;2024-02-26T03:22:28;49.20;;;24.08;;
35326;SDS011;21436;52.348;20.928;2024-02-26T03:24:55;55.35;;;25.10;;
35326;SDS011;21436;52.348;20.928;2024-02-26T03:27:24;55.65;;;24.77;;
35326;SDS011;21436;52.348;20.928;2024-02-26T03:29:52;53.85;;;24.95;;
35326;SDS011;21436;52.348;20.928;2024-02-26T03:32:20;56.00;;;24.50;;
35326;SDS011;21436;52.348;20.928;2024-02-26T03:35:08;61.80;;;24.73;;
35326;SDS011;21436;52.348;20.928;2024-02-26T03:37:39;47.05;;;21.88;;
35326;SDS011;21436;52.348;20.928;2024-02-26T03:40:07;55.38;;;24.13;;
35326;SDS011;21436;52.348;20.928;2024-02-26T03:42:36;55.40;;;23.10;;
35326;SDS011;21436;52.348;20.928;2024-02-26T03:45:04;56.17;;;25.30;;
35326;SDS011;21436;52.348;20.928;2024-02-26T03:47:33;49.92;;;21.58;;
35326;SDS011;21436;52.348;20.928;2024-02-26T03:50:00;49.85;;;23.48;;
35326;SDS011;21436;52.348;20.928;2024-02-26T03:52:28;48.25;;;23.58;;
35326;SDS011;21436;52.348;20.928;2024-02-26T03:54:56;65.43;;;25.58;;
35326;SDS011;21436;52.348;20.928;2024-02-26T03:57:24;60.17;;;26.00;;
35326;SDS011;21436;52.348;20.928;2024-02-26T03:59:51;54.80;;;23.05;;
35326;SDS011;21436;52.348;20.928;2024-02-26T04:02:19;58.25;;;24.50;;
35326;SDS011;21436;52.348;20.928;2024-02-26T04:04:47;51.42;;;24.80;;
35326;SDS011;21436;52.348;20.928;2024-02-26T04:07:15;59.47;;;24.83;;
35326;SDS011;21436;52.348;20.928;2024-02-26T04:09:44;56.47;;;23.98;;
35326;SDS011;21436;52.348;20.928;2024-02-26T04:12:12;45.92;;;21.83;;
35326;SDS011;21436;52.348;20.928;2024-02-26T04:14:39;55.90;;;24.75;;
35326;SDS011;21436;52.348;20.928;2024-02-26T04:17:07;57.70;;;26.20;;
35326;SDS011;21436;52.348;20.928;2024-02-26T04:19:35;60.88;;;26.35;;
35326;SDS011;21436;52.348;20.928;2024-02-26T04:22:03;60.00;;;27.40;;
35326;SDS011;21436;52.348;20.928;2024-02-26T04:24:31;63.65;;;28.00;;
35326;SDS011;21436;52.348;20.928;2024-02-26T04:26:58;49.13;;;23.55;;
35326;SDS011;21436;52.348;20.928;2024-02-26T04:29:26;49.65;;;21.63;;
35326;SDS011;21436;52.348;20.928;2024-02-26T04:31:54;60.97;;;24.27;;
35326;SDS011;21436;52.348;20.928;2024-02-26T04:34:22;52.25;;;24.27;;
35326;SDS011;21436;52.348;20.928;2024-02-26T04:36:50;51.65;;;25.10;;
35326;SDS011;21436;52.348;20.928;2024-02-26T04:39:18;54.95;;;26.20;;
35326;SDS011;21436;52.348;20.928;2024-02-26T04:41:46;62.15;;;28.65;;
35326;SDS011;21436;52.348;20.928;2024-02-26T04:44:14;59.20;;;27.67;;
35326;SDS011;21436;52.348;20.928;2024-02-26T04:46:41;54.58;;;24.55;;
35326;SDS011;21436;52.348;20.928;2024-02-26T04:49:09;55.15;;;25.50;;
35326;SDS011;21436;52.348;20.928;2024-02-26T04:51:37;66.57;;;28.27;;
35326;SDS011;21436;52.348;20.928;2024-02-26T04:54:05;78.65;;;36.97;;
35326;SDS011;21436;52.348;20.928;2024-02-26T04:56:34;65.75;;;29.48;;
35326;SDS011;21436;52.348;20.928;2024-02-26T04:59:01;64.80;;;29.17;;
35326;SDS011;21436;52.348;20.928;2024-02-26T05:01:29;64.45;;;29.80;;
35326;SDS011;21436;52.348;20.928;2024-02-26T05:03:57;60.55;;;28.45;;
35326;SDS011;21436;52.348;20.928;2024-02-26T05:06:25;63.08;;;30.98;;
35326;SDS011;21436;52.348;20.928;2024-02-26T05:08:53;74.38;;;34.03;;
35326;SDS011;21436;52.348;20.928;2024-02-26T05:11:20;72.05;;;33.28;;
35326;SDS011;21436;52.348;20.928;2024-02-26T05:13:48;77.22;;;33.85;;
35326;SDS011;21436;52.348;20.928;2024-02-26T05:16:16;82.28;;;36.40;;
35326;SDS011;21436;52.348;20.928;2024-02-26T05:18:43;64.05;;;28.95;;
35326;SDS011;21436;52.348;20.928;2024-02-26T05:21:12;61.42;;;28.85;;
35326;SDS011;21436;52.348;20.928;2024-02-26T05:23:39;68.40;;;28.50;;
35326;SDS011;21436;52.348;20.928;2024-02-26T05:26:07;61.25;;;27.80;;
35326;SDS011;21436;52.348;20.928;2024-02-26T05:28:35;62.92;;;28.67;;
35326;SDS011;21436;52.348;20.928;2024-02-26T05:31:04;80.47;;;31.65;;
35326;SDS011;21436;52.348;20.928;2024-02-26T05:33:32;88.72;;;40.30;;
35326;SDS011;21436;52.348;20.928;2024-02-26T05:36:00;84.75;;;34.35;;
35326;SDS011;21436;52.348;20.928;2024-02-26T05:38:31;69.32;;;32.20;;
35326;SDS011;21436;52.348;20.928;2024-02-26T05:40:59;65.10;;;31.48;;
35326;SDS011;21436;52.348;20.928;2024-02-26T05:43:27;70.78;;;32.20;;
35326;SDS011;21436;52.348;20.928;2024-02-26T05:45:55;65.95;;;29.88;;
35326;SDS011;21436;52.348;20.928;2024-02-26T05:48:23;70.30;;;31.80;;
35326;SDS011;21436;52.348;20.928;2024-02-26T05:50:51;76.88;;;31.70;;
35326;SDS011;21436;52.348;20.928;2024-02-26T05:53:18;72.93;;;31.67;;
35326;SDS011;21436;52.348;20.928;2024-02-26T05:55:46;75.32;;;32.47;;
35326;SDS011;21436;52.348;20.928;2024-02-26T05:58:14;67.75;;;32.08;;
35326;SDS011;21436;52.348;20.928;2024-02-26T06:00:41;80.70;;;34.70;;
35326;SDS011;21436;52.348;20.928;2024-02-26T06:03:09;72.78;;;32.33;;
35326;SDS011;21436;52.348;20.928;2024-02-26T06:05:37;80.55;;;34.65;;
35326;SDS011;21436;52.348;20.928;2024-02-26T06:08:05;81.18;;;34.42;;
35326;SDS011;21436;52.348;20.928;2024-02-26T06:10:34;82.10;;;36.05;;
35326;SDS011;21436;52.348;20.928;2024-02-26T06:13:02;80.18;;;35.40;;
35326;SDS011;21436;52.348;20.928;2024-02-26T06:15:29;83.88;;;34.75;;
35326;SDS011;21436;52.348;20.928;2024-02-26T06:17:58;76.38;;;33.72;;
35326;SDS011;21436;52.348;20.928;2024-02-26T06:20:25;75.47;;;34.78;;
35326;SDS011;21436;52.348;20.928;2024-02-26T06:22:53;87.28;;;34.95;;
35326;SDS011;21436;52.348;20.928;2024-02-26T06:25:21;92.70;;;36.30;;
35326;SDS011;21436;52.348;20.928;2024-02-26T06:27:48;89.15;;;35.58;;
35326;SDS011;21436;52.348;20.928;2024-02-26T06:30:16;87.80;;;35.70;;
35326;SDS011;21436;52.348;20.928;2024-02-26T06:32:44;84.40;;;34.72;;
35326;SDS011;21436;52.348;20.928;2024-02-26T06:35:12;76.53;;;35.35;;
35326;SDS011;21436;52.348;20.928;2024-02-26T06:37:40;73.50;;;34.65;;
35326;SDS011;21436;52.348;20.928;2024-02-26T06:40:09;72.75;;;32.95;;
35326;SDS011;21436;52.348;20.928;2024-02-26T06:42:37;79.22;;;32.75;;
35326;SDS011;21436;52.348;20.928;2024-02-26T06:45:05;80.93;;;36.00;;
35326;SDS011;21436;52.348;20.928;2024-02-26T06:47:35;87.05;;;38.45;;
35326;SDS011;21436;52.348;20.928;2024-02-26T06:50:03;96.25;;;41.08;;
35326;SDS011;21436;52.348;20.928;2024-02-26T06:52:31;98.53;;;41.47;;
35326;SDS011;21436;52.348;20.928;2024-02-26T06:54:59;94.68;;;44.22;;
35326;SDS011;21436;52.348;20.928;2024-02-26T06:57:26;94.40;;;41.90;;
35326;SDS011;21436;52.348;20.928;2024-02-26T06:59:54;86.70;;;41.30;;
35326;SDS011;21436;52.348;20.928;2024-02-26T07:02:22;79.88;;;38.30;;
35326;SDS011;21436;52.348;20.928;2024-02-26T07:04:50;67.45;;;34.50;;
35326;SDS011;21436;52.348;20.928;2024-02-26T07:07:17;61.20;;;30.70;;
35326;SDS011;21436;52.348;20.928;2024-02-26T07:09:46;60.97;;;28.42;;
35326;SDS011;21436;52.348;20.928;2024-02-26T07:12:13;55.33;;;28.63;;
35326;SDS011;21436;52.348;20.928;2024-02-26T07:14:43;53.42;;;26.80;;
35326;SDS011;21436;52.348;20.928;2024-02-26T07:17:11;48.17;;;25.48;;
35326;SDS011;21436;52.348;20.928;2024-02-26T07:19:39;53.15;;;23.77;;
35326;SDS011;21436;52.348;20.928;2024-02-26T07:22:06;52.95;;;23.67;;
35326;SDS011;21436;52.348;20.928;2024-02-26T07:24:34;44.53;;;24.17;;
35326;SDS011;21436;52.348;20.928;2024-02-26T07:27:02;45.88;;;23.38;;
35326;SDS011;21436;52.348;20.928;2024-02-26T07:29:30;44.15;;;22.60;;
35326;SDS011;21436;52.348;20.928;2024-02-26T07:31:58;42.25;;;22.88;;
35326;SDS011;21436;52.348;20.928;2024-02-26T07:34:26;49.75;;;21.17;;
35326;SDS011;21436;52.348;20.928;2024-02-26T07:36:56;43.20;;;21.63;;
35326;SDS011;21436;52.348;20.928;2024-02-26T07:39:24;37.20;;;20.77;;
35326;SDS011;21436;52.348;20.928;2024-02-26T07:41:52;44.00;;;21.85;;
35326;SDS011;21436;52.348;20.928;2024-02-26T07:44:20;45.83;;;21.58;;
35326;SDS011;21436;52.348;20.928;2024-02-26T07:46:48;48.33;;;22.13;;
35326;SDS011;21436;52.348;20.928;2024-02-26T07:49:16;46.28;;;21.38;;
35326;SDS011;21436;52.348;20.928;2024-02-26T07:51:44;41.10;;;20.33;;
35326;SDS011;21436;52.348;20.928;2024-02-26T07:54:12;46.03;;;22.25;;
35326;SDS011;21436;52.348;20.928;2024-02-26T07:56:39;40.08;;;20.90;;
35326;SDS011;21436;52.348;20.928;2024-02-26T07:59:07;39.90;;;20.55;;
35326;SDS011;21436;52.348;20.928;2024-02-26T08:01:36;46.50;;;20.88;;
35326;SDS011;21436;52.348;20.928;2024-02-26T08:04:06;40.63;;;20.65;;
35326;SDS011;21436;52.348;20.928;2024-02-26T08:06:34;49.92;;;22.48;;
35326;SDS011;21436;52.348;20.928;2024-02-26T08:09:05;68.57;;;35.63;;
35326;SDS011;21436;52.348;20.928;2024-02-26T08:11:32;51.45;;;25.77;;
35326;SDS011;21436;52.348;20.928;2024-02-26T08:14:00;48.78;;;21.60;;
35326;SDS011;21436;52.348;20.928;2024-02-26T08:16:28;42.85;;;20.95;;
35326;SDS011;21436;52.348;20.928;2024-02-26T08:18:58;41.25;;;20.67;;
35326;SDS011;21436;52.348;20.928;2024-02-26T08:21:25;40.75;;;20.50;;
35326;SDS011;21436;52.348;20.928;2024-02-26T08:23:53;38.78;;;19.42;;
35326;SDS011;21436;52.348;20.928;2024-02-26T08:26:22;48.17;;;19.88;;
35326;SDS011;21436;52.348;20.928;2024-02-26T08:28:52;39.20;;;20.05;;
35326;SDS011;21436;52.348;20.928;2024-02-26T08:31:21;38.72;;;20.10;;
35326;SDS011;21436;52.348;20.928;2024-02-26T08:33:50;31.20;;;17.42;;
35326;SDS011;21436;52.348;20.928;2024-02-26T08:36:18;34.08;;;17.10;;
35326;SDS011;21436;52.348;20.928;2024-02-26T08:38:46;39.50;;;18.90;;
35326;SDS011;21436;52.348;20.928;2024-02-26T08:41:14;30.80;;;16.92;;
35326;SDS011;21436;52.348;20.928;2024-02-26T08:43:42;31.13;;;16.73;;
35326;SDS011;21436;52.348;20.928;2024-02-26T08:46:09;34.25;;;16.35;;
35326;SDS011;21436;52.348;20.928;2024-02-26T08:48:38;33.55;;;17.48;;
35326;SDS011;21436;52.348;20.928;2024-02-26T08:51:06;31.33;;;16.80;;
35326;SDS011;21436;52.348;20.928;2024-02-26T08:53:37;34.90;;;17.17;;
35326;SDS011;21436;52.348;20.928;2024-02-26T08:56:10;28.33;;;16.48;;
35326;SDS011;21436;52.348;20.928;2024-02-26T08:58:45;29.95;;;16.55;;
35326;SDS011;21436;52.348;20.928;2024-02-26T09:01:15;31.27;;;15.93;;
35326;SDS011;21436;52.348;20.928;2024-02-26T09:03:44;28.42;;;16.35;;
35326;SDS011;21436;52.348;20.928;2024-02-26T09:06:14;27.27;;;15.25;;
35326;SDS011;21436;52.348;20.928;2024-02-26T09:08:42;26.92;;;16.35;;
35326;SDS011;21436;52.348;20.928;2024-02-26T09:11:10;28.85;;;16.05;;
35326;SDS011;21436;52.348;20.928;2024-02-26T09:13:38;28.50;;;16.33;;
35326;SDS011;21436;52.348;20.928;2024-02-26T09:16:06;29.98;;;16.02;;
35326;SDS011;21436;52.348;20.928;2024-02-26T09:18:34;25.48;;;15.70;;
35326;SDS011;21436;52.348;20.928;2024-02-26T09:21:05;27.45;;;15.48;;
35326;SDS011;21436;52.348;20.928;2024-02-26T09:23:36;32.20;;;16.65;;
35326;SDS011;21436;52.348;20.928;2024-02-26T09:26:05;25.35;;;16.17;;
35326;SDS011;21436;52.348;20.928;2024-02-26T09:28:33;24.88;;;15.95;;
35326;SDS011;21436;52.348;20.928;2024-02-26T09:31:04;35.80;;;16.75;;
35326;SDS011;21436;52.348;20.928;2024-02-26T09:33:33;28.55;;;16.48;;
35326;SDS011;21436;52.348;20.928;2024-02-26T09:36:02;28.10;;;16.17;;
35326;SDS011;21436;52.348;20.928;2024-02-26T09:38:31;30.77;;;17.30;;
35326;SDS011;21436;52.348;20.928;2024-02-26T09:41:18;29.95;;;15.85;;
35326;SDS011;21436;52.348;20.928;2024-02-26T09:43:46;32.08;;;17.73;;
35326;SDS011;21436;52.348;20.928;2024-02-26T09:46:15;29.52;;;16.60;;
35326;SDS011;21436;52.348;20.928;2024-02-26T09:48:45;31.45;;;18.17;;
35326;SDS011;21436;52.348;20.928;2024-02-26T09:51:14;28.42;;;17.80;;
35326;SDS011;21436;52.348;20.928;2024-02-26T09:53:43;28.90;;;17.10;;
35326;SDS011;21436;52.348;20.928;2024-02-26T09:56:12;27.70;;;16.10;;
35326;SDS011;21436;52.348;20.928;2024-02-26T09:58:41;25.83;;;16.10;;
35326;SDS011;21436;52.348;20.928;2024-02-26T10:01:13;26.38;;;16.10;;
35326;SDS011;21436;52.348;20.928;2024-02-26T10:03:48;29.45;;;17.80;;
35326;SDS011;21436;52.348;20.928;2024-02-26T10:06:27;26.13;;;16.63;;
35326;SDS011;21436;52.348;20.928;2024-02-26T10:08:56;29.67;;;17.90;;
35326;SDS011;21436;52.348;20.928;2024-02-26T10:11:27;28.73;;;16.73;;
35326;SDS011;21436;52.348;20.928;2024-02-26T10:13:56;32.88;;;17.70;;
35326;SDS011;21436;52.348;20.928;2024-02-26T10:16:24;29.83;;;17.85;;
35326;SDS011;21436;52.348;20.928;2024-02-26T10:18:53;30.65;;;18.05;;
35326;SDS011;21436;52.348;20.928;2024-02-26T10:21:26;31.85;;;16.55;;
35326;SDS011;21436;52.348;20.928;2024-02-26T10:23:54;27.58;;;18.90;;
35326;SDS011;21436;52.348;20.928;2024-02-26T10:26:22;34.22;;;17.73;;
35326;SDS011;21436;52.348;20.928;2024-02-26T10:28:49;32.67;;;17.48;;
35326;SDS011;21436;52.348;20.928;2024-02-26T10:31:21;28.70;;;17.45;;
35326;SDS011;21436;52.348;20.928;2024-02-26T10:33:49;32.92;;;18.10;;
35326;SDS011;21436;52.348;20.928;2024-02-26T10:36:18;28.17;;;17.77;;
35326;SDS011;21436;52.348;20.928;2024-02-26T10:38:46;29.30;;;18.02;;
35326;SDS011;21436;52.348;20.928;2024-02-26T10:41:14;27.85;;;17.83;;
35326;SDS011;21436;52.348;20.928;2024-02-26T10:43:43;27.92;;;17.50;;
35326;SDS011;21436;52.348;20.928;2024-02-26T10:46:11;33.58;;;18.05;;
35326;SDS011;21436;52.348;20.928;2024-02-26T10:48:39;26.58;;;16.23;;
35326;SDS011;21436;52.348;20.928;2024-02-26T10:51:08;25.55;;;15.90;;
35326;SDS011;21436;52.348;20.928;2024-02-26T10:53:38;26.25;;;16.35;;
35326;SDS011;21436;52.348;20.928;2024-02-26T10:56:07;28.10;;;17.67;;
35326;SDS011;21436;52.348;20.928;2024-02-26T10:58:35;33.17;;;17.98;;
35326;SDS011;21436;52.348;20.928;2024-02-26T11:01:03;28.35;;;16.13;;
35326;SDS011;21436;52.348;20.928;2024-02-26T11:03:32;28.63;;;17.52;;
35326;SDS011;21436;52.348;20.928;2024-02-26T11:06:03;25.58;;;15.73;;
35326;SDS011;21436;52.348;20.928;2024-02-26T11:08:31;29.08;;;16.35;;
35326;SDS011;21436;52.348;20.928;2024-02-26T11:10:59;27.90;;;16.27;;
35326;SDS011;21436;52.348;20.928;2024-02-26T11:13:28;31.73;;;17.23;;
35326;SDS011;21436;52.348;20.928;2024-02-26T11:16:01;27.58;;;16.08;;
35326;SDS011;21436;52.348;20.928;2024-02-26T11:18:29;28.75;;;17.02;;
35326;SDS011;21436;52.348;20.928;2024-02-26T11:20:57;28.70;;;16.77;;
35326;SDS011;21436;52.348;20.928;2024-02-26T11:23:27;27.63;;;15.77;;
35326;SDS011;21436;52.348;20.928;2024-02-26T11:25:55;22.90;;;15.10;;
35326;SDS011;21436;52.348;20.928;2024-02-26T11:28:24;27.83;;;15.95;;
35326;SDS011;21436;52.348;20.928;2024-02-26T11:30:52;24.48;;;15.35;;
35326;SDS011;21436;52.348;20.928;2024-02-26T11:33:20;21.95;;;13.77;;
35326;SDS011;21436;52.348;20.928;2024-02-26T11:35:48;25.40;;;14.18;;
35326;SDS011;21436;52.348;20.928;2024-02-26T11:38:20;22.38;;;13.73;;
35326;SDS011;21436;52.348;20.928;2024-02-26T11:40:51;24.80;;;14.02;;
35326;SDS011;21436;52.348;20.928;2024-02-26T11:43:23;20.02;;;11.38;;
35326;SDS011;21436;52.348;20.928;2024-02-26T11:45:53;18.48;;;11.68;;
35326;SDS011;21436;52.348;20.928;2024-02-26T11:48:24;20.10;;;12.65;;
35326;SDS011;21436;52.348;20.928;2024-02-26T11:50:53;18.15;;;12.15;;
35326;SDS011;21436;52.348;20.928;2024-02-26T11:58:43;12.35;;;7.95;;
35326;SDS011;21436;52.348;20.928;2024-02-26T12:04:21;15.27;;;9.73;;
35326;SDS011;21436;52.348;20.928;2024-02-26T12:06:56;13.98;;;9.70;;
35326;SDS011;21436;52.348;20.928;2024-02-26T12:09:36;16.05;;;9.45;;
35326;SDS011;21436;52.348;20.928;2024-02-26T12:12:07;13.57;;;8.90;;
35326;SDS011;21436;52.348;20.928;2024-02-26T12:14:38;13.57;;;9.05;;
35326;SDS011;21436;52.348;20.928;2024-02-26T12:17:07;12.95;;;9.43;;
35326;SDS011;21436;52.348;20.928;2024-02-26T12:19:53;13.90;;;8.23;;
35326;SDS011;21436;52.348;20.928;2024-02-26T12:22:22;11.75;;;8.27;;
35326;SDS011;21436;52.348;20.928;2024-02-26T12:24:59;12.73;;;9.00;;
35326;SDS011;21436;52.348;20.928;2024-02-26T12:27:28;13.10;;;8.75;;
35326;SDS011;21436;52.348;20.928;2024-02-26T12:29:56;14.00;;;7.80;;
35326;SDS011;21436;52.348;20.928;2024-02-26T12:32:24;15.52;;;8.57;;
35326;SDS011;21436;52.348;20.928;2024-02-26T12:34:52;14.77;;;9.18;;
35326;SDS011;21436;52.348;20.928;2024-02-26T12:37:19;14.52;;;8.88;;
35326;SDS011;21436;52.348;20.928;2024-02-26T12:39:47;11.52;;;8.05;;
35326;SDS011;21436;52.348;20.928;2024-02-26T12:42:15;11.23;;;7.97;;
35326;SDS011;21436;52.348;20.928;2024-02-26T12:44:44;13.48;;;8.30;;
35326;SDS011;21436;52.348;20.928;2024-02-26T12:47:13;12.48;;;7.50;;
35326;SDS011;21436;52.348;20.928;2024-02-26T12:49:46;11.23;;;7.55;;
35326;SDS011;21436;52.348;20.928;2024-02-26T12:52:15;11.27;;;8.55;;
35326;SDS011;21436;52.348;20.928;2024-02-26T12:54:44;11.43;;;7.65;;
35326;SDS011;21436;52.348;20.928;2024-02-26T12:57:12;11.85;;;7.93;;
35326;SDS011;21436;52.348;20.928;2024-02-26T12:59:40;11.40;;;7.07;;
35326;SDS011;21436;52.348;20.928;2024-02-26T13:02:08;11.85;;;8.10;;
35326;SDS011;21436;52.348;20.928;2024-02-26T13:04:36;12.90;;;7.22;;
35326;SDS011;21436;52.348;20.928;2024-02-26T13:07:05;11.27;;;7.28;;
35326;SDS011;21436;52.348;20.928;2024-02-26T13:09:34;10.73;;;7.68;;
35326;SDS011;21436;52.348;20.928;2024-02-26T13:12:05;13.73;;;8.30;;
35326;SDS011;21436;52.348;20.928;2024-02-26T13:14:34;13.75;;;8.35;;
35326;SDS011;21436;52.348;20.928;2024-02-26T13:17:02;16.27;;;8.82;;
35326;SDS011;21436;52.348;20.928;2024-02-26T13:19:30;9.35;;;6.70;;
35326;SDS011;21436;52.348;20.928;2024-02-26T13:22:05;11.02;;;6.25;;
35326;SDS011;21436;52.348;20.928;2024-02-26T13:24:35;11.48;;;7.13;;
35326;SDS011;21436;52.348;20.928;2024-02-26T13:27:03;10.57;;;6.40;;
35326;SDS011;21436;52.348;20.928;2024-02-26T13:29:34;11.27;;;6.38;;
35326;SDS011;21436;52.348;20.928;2024-02-26T13:32:02;8.65;;;5.78;;
35326;SDS011;21436;52.348;20.928;2024-02-26T13:34:31;10.35;;;6.60;;
35326;SDS011;21436;52.348;20.928;2024-02-26T13:37:00;10.38;;;5.55;;
35326;SDS011;21436;52.348;20.928;2024-02-26T13:39:28;6.85;;;5.32;;
35326;SDS011;21436;52.348;20.928;2024-02-26T13:41:57;7.93;;;4.80;;
35326;SDS011;21436;52.348;20.928;2024-02-26T13:44:26;9.30;;;4.78;;
35326;SDS011;21436;52.348;20.928;2024-02-26T13:46:53;7.45;;;5.63;;
35326;SDS011;21436;52.348;20.928;2024-02-26T13:49:22;10.68;;;5.63;;
35326;SDS011;21436;52.348;20.928;2024-02-26T13:51:50;11.90;;;5.30;;
35326;SDS011;21436;52.348;20.928;2024-02-26T13:54:19;9.23;;;5.70;;
35326;SDS011;21436;52.348;20.928;2024-02-26T13:56:47;7.90;;;5.75;;
35326;SDS011;21436;52.348;20.928;2024-02-26T13:59:15;9.18;;;5.88;;
35326;SDS011;21436;52.348;20.928;2024-02-26T14:01:43;8.98;;;5.40;;
35326;SDS011;21436;52.348;20.928;2024-02-26T14:04:11;7.60;;;4.97;;
35326;SDS011;21436;52.348;20.928;2024-02-26T14:06:39;6.28;;;4.70;;
35326;SDS011;21436;52.348;20.928;2024-02-26T14:09:08;7.88;;;5.40;;
35326;SDS011;21436;52.348;20.928;2024-02-26T14:11:36;9.38;;;5.15;;
35326;SDS011;21436;52.348;20.928;2024-02-26T14:14:05;6.90;;;4.50;;
35326;SDS011;21436;52.348;20.928;2024-02-26T14:16:32;7.55;;;4.30;;
35326;SDS011;21436;52.348;20.928;2024-02-26T14:19:00;6.90;;;4.43;;
35326;SDS011;21436;52.348;20.928;2024-02-26T14:21:27;7.13;;;4.72;;
35326;SDS011;21436;52.348;20.928;2024-02-26T14:23:57;6.70;;;4.40;;
35326;SDS011;21436;52.348;20.928;2024-02-26T14:26:24;7.03;;;3.97;;
35326;SDS011;21436;52.348;20.928;2024-02-26T14:28:52;7.80;;;4.15;;